createdAt,value
2019-03-22T00:00:53.096Z,66.32
2019-03-22T00:03:22.807Z,66.66
2019-03-22T00:05:52.416Z,67.51
2019-03-22T00:08:21.938Z,67.44
2019-03-22T00:10:51.494Z,66.69
2019-03-22T00:13:21.028Z,66.92
2019-03-22T00:15:50.708Z,66.87
2019-03-22T00:18:20.273Z,66.50
2019-03-22T00:20:49.954Z,66.19
2019-03-22T00:23:19.488Z,66.46
2019-03-22T00:25:49.514Z,67.06
2019-03-22T00:28:19.120Z,66.96
2019-03-22T00:30:48.858Z,67.08
2019-03-22T00:33:18.710Z,67.19
2019-03-22T00:35:48.342Z,67.22
2019-03-22T00:38:20.831Z,66.82
2019-03-22T00:40:50.482Z,66.59
2019-03-22T00:43:20.082Z,66.51
2019-03-22T00:45:49.802Z,66.10
2019-03-22T00:48:19.420Z,66.93
2019-03-22T00:50:48.948Z,66.95
2019-03-22T00:53:18.618Z,66.85
2019-03-22T00:55:48.200Z,67.38
2019-03-22T00:58:17.733Z,67.56
2019-03-22T01:00:47.353Z,67.88
2019-03-22T01:03:17.315Z,67.77
2019-03-22T01:05:48.637Z,67.88
2019-03-22T01:08:18.276Z,70.08
2019-03-22T01:10:49.617Z,69.29
2019-03-22T01:13:19.222Z,68.60
2019-03-22T01:15:48.743Z,68.17
2019-03-22T01:18:18.334Z,68.63
2019-03-22T01:20:48.321Z,69.29
2019-03-22T01:23:17.843Z,70.13
2019-03-22T01:25:47.409Z,69.24
2019-03-22T01:28:16.935Z,68.70
2019-03-22T01:30:46.444Z,68.68
2019-03-22T01:33:16.076Z,68.46
2019-03-22T01:35:45.644Z,68.51
2019-03-22T01:38:15.169Z,68.23
2019-03-22T01:40:45.290Z,68.42
2019-03-22T01:43:14.958Z,68.68
2019-03-22T01:45:44.577Z,68.93
2019-03-22T01:48:14.216Z,69.22
2019-03-22T01:50:43.750Z,69.46
2019-03-22T01:53:13.346Z,69.51
2019-03-22T01:55:42.979Z,69.62
2019-03-22T01:58:12.661Z,69.36
2019-03-22T02:00:42.326Z,69.47
2019-03-22T02:03:12.161Z,69.68
2019-03-22T02:05:43.599Z,69.11
2019-03-22T02:08:13.655Z,69.18
2019-03-22T02:10:43.278Z,70.04
2019-03-22T02:13:12.827Z,70.72
2019-03-22T02:15:42.414Z,70.43
2019-03-22T02:18:12.056Z,71.20
2019-03-22T02:20:41.622Z,71.49
2019-03-22T02:23:11.345Z,71.25
2019-03-22T02:25:41.385Z,71.30
2019-03-22T02:28:11.052Z,70.57
2019-03-22T02:30:40.575Z,70.42
2019-03-22T02:33:10.154Z,70.34
2019-03-22T02:35:40.109Z,70.29
2019-03-22T02:38:09.660Z,70.34
2019-03-22T02:40:39.312Z,70.40
2019-03-22T02:43:08.957Z,71.59
2019-03-22T02:45:38.675Z,71.87
2019-03-22T02:48:08.508Z,71.46
2019-03-22T02:50:38.050Z,71.16
2019-03-22T02:53:07.661Z,71.50
2019-03-22T02:55:37.629Z,71.41
2019-03-22T02:58:19.715Z,71.05
2019-03-22T03:00:38.626Z,70.66
2019-03-22T03:03:08.328Z,70.98
2019-03-22T03:05:37.862Z,71.07
2019-03-22T03:08:07.547Z,71.64
2019-03-22T03:10:37.352Z,71.97
2019-03-22T03:13:06.945Z,72.01
2019-03-22T03:15:36.469Z,71.59
2019-03-22T03:18:06.096Z,71.35
2019-03-22T03:20:35.723Z,71.56
2019-03-22T03:23:05.415Z,71.94
2019-03-22T03:25:35.048Z,71.80
2019-03-22T03:28:04.728Z,71.92
2019-03-22T03:30:34.344Z,72.13
2019-03-22T03:33:04.628Z,71.83
2019-03-22T03:35:35.744Z,71.03
2019-03-22T03:38:05.398Z,71.74
2019-03-22T03:40:35.132Z,71.28
2019-03-22T03:43:04.890Z,70.88
2019-03-22T03:45:38.235Z,70.21
2019-03-22T03:48:15.946Z,69.86
2019-03-22T03:50:46.127Z,69.82
2019-03-22T03:53:15.755Z,70.67
2019-03-22T03:55:45.441Z,71.80
2019-03-22T03:58:16.004Z,72.72
2019-03-22T04:00:45.613Z,72.47
2019-03-22T04:03:15.247Z,71.99
2019-03-22T04:05:44.786Z,72.09
2019-03-22T04:08:14.341Z,71.55
2019-03-22T04:10:44.045Z,71.55
2019-03-22T04:13:13.588Z,71.18
2019-03-22T04:15:43.290Z,71.10
2019-03-22T04:18:13.370Z,71.73
2019-03-22T04:20:42.888Z,71.93
2019-03-22T04:23:12.425Z,71.11
2019-03-22T04:25:41.977Z,71.39
2019-03-22T04:28:11.593Z,70.99
2019-03-22T04:30:41.122Z,71.30
2019-03-22T04:33:11.169Z,71.00
2019-03-22T04:35:40.685Z,70.25
2019-03-22T04:38:10.438Z,69.96
2019-03-22T04:40:39.985Z,69.75
2019-03-22T04:43:09.514Z,69.27
2019-03-22T04:45:41.345Z,69.61
2019-03-22T04:48:21.818Z,73.27
2019-03-22T04:50:54.098Z,70.09
2019-03-22T04:53:25.888Z,70.56
2019-03-22T04:56:01.778Z,70.58
2019-03-22T04:58:32.611Z,69.66
2019-03-22T05:01:03.469Z,69.81
2019-03-22T05:03:35.757Z,69.52
2019-03-22T05:06:07.534Z,69.48
2019-03-22T05:08:39.670Z,69.08
2019-03-22T05:11:12.363Z,69.19
2019-03-22T05:13:46.079Z,68.95
2019-03-22T05:16:18.608Z,69.09
2019-03-22T05:18:50.191Z,69.14
2019-03-22T05:21:23.902Z,69.19
2019-03-22T05:23:58.646Z,68.51
2019-03-22T05:26:30.543Z,68.43
2019-03-22T05:29:01.506Z,68.23
2019-03-22T05:31:44.606Z,68.54
2019-03-22T05:34:16.940Z,68.71
2019-03-22T05:36:46.547Z,69.43
2019-03-22T05:39:16.364Z,69.32
2019-03-22T05:41:45.971Z,69.24
2019-03-22T05:44:15.552Z,69.34
2019-03-22T05:46:45.180Z,69.61
2019-03-22T05:49:14.714Z,69.17
2019-03-22T05:51:44.332Z,69.15
2019-03-22T05:54:13.845Z,69.91
2019-03-22T05:56:43.389Z,69.69
2019-03-22T05:59:12.958Z,69.32
2019-03-22T06:01:45.381Z,69.33
2019-03-22T06:04:15.184Z,69.78
2019-03-22T06:06:44.814Z,69.34
2019-03-22T06:09:14.440Z,69.46
2019-03-22T06:11:44.111Z,69.44
2019-03-22T06:14:13.799Z,70.30
2019-03-22T06:16:43.586Z,70.22
2019-03-22T06:19:13.237Z,70.34
2019-03-22T06:21:43.003Z,70.46
2019-03-22T06:24:12.722Z,70.77
2019-03-22T06:26:42.547Z,70.64
2019-03-22T06:29:12.349Z,70.75
2019-03-22T06:31:42.007Z,70.96
2019-03-22T06:34:11.850Z,71.48
2019-03-22T06:36:41.588Z,71.17
2019-03-22T06:39:11.366Z,70.67
2019-03-22T06:41:41.117Z,70.25
2019-03-22T06:44:10.707Z,70.13
2019-03-22T06:46:41.116Z,70.44
2019-03-22T06:49:10.833Z,70.23
2019-03-22T06:51:40.572Z,70.61
2019-03-22T06:54:11.871Z,71.28
2019-03-22T06:56:41.487Z,72.12
2019-03-22T06:59:11.160Z,72.09
2019-03-22T07:01:40.878Z,71.62
2019-03-22T07:04:12.361Z,70.85
2019-03-22T07:06:42.018Z,70.78
2019-03-22T07:09:11.857Z,71.10
2019-03-22T07:11:42.018Z,70.98
2019-03-22T07:14:11.659Z,71.60
2019-03-22T07:16:41.452Z,72.54
2019-03-22T07:19:11.136Z,72.68
2019-03-22T07:21:40.828Z,71.33
2019-03-22T07:24:10.741Z,70.92
2019-03-22T07:26:40.430Z,71.83
2019-03-22T07:29:10.207Z,72.91
2019-03-22T07:31:40.813Z,73.96
2019-03-22T07:34:10.441Z,73.80
2019-03-22T07:36:40.230Z,74.80
2019-03-22T07:39:10.649Z,74.54
2019-03-22T07:41:40.354Z,74.09
2019-03-22T07:44:09.893Z,74.04
2019-03-22T07:46:39.703Z,73.16
2019-03-22T07:49:09.405Z,72.38
2019-03-22T07:51:38.969Z,72.91
2019-03-22T07:54:10.637Z,73.79
2019-03-22T07:56:40.422Z,74.98
2019-03-22T07:59:10.142Z,74.05
2019-03-22T08:01:41.209Z,73.51
2019-03-22T08:04:10.855Z,72.76
2019-03-22T08:06:40.605Z,72.08
2019-03-22T08:09:10.489Z,72.95
2019-03-22T08:11:40.769Z,72.26
2019-03-22T08:14:10.317Z,73.01
2019-03-22T08:16:42.988Z,72.53
2019-03-22T08:19:12.855Z,72.85
2019-03-22T08:21:42.602Z,71.68
2019-03-22T08:24:18.149Z,71.36
2019-03-22T08:26:47.826Z,70.66
2019-03-22T08:29:17.553Z,70.73
2019-03-22T08:31:47.906Z,70.72
2019-03-22T08:34:17.632Z,70.42
2019-03-22T08:36:47.277Z,70.81
2019-03-22T08:39:16.982Z,72.22
2019-03-22T08:41:46.727Z,72.37
2019-03-22T08:44:16.523Z,72.83
2019-03-22T08:46:46.338Z,71.76
2019-03-22T08:49:16.313Z,71.67
2019-03-22T08:51:46.064Z,71.33
2019-03-22T08:54:18.663Z,70.38
2019-03-22T08:56:48.364Z,70.70
2019-03-22T08:59:18.093Z,70.63
2019-03-22T09:01:48.286Z,71.58
2019-03-22T09:04:18.025Z,71.37
2019-03-22T09:06:47.745Z,69.67
2019-03-22T09:09:17.574Z,69.46
2019-03-22T09:11:47.296Z,69.74
2019-03-22T09:14:17.127Z,69.82
2019-03-22T09:16:47.220Z,69.87
2019-03-22T09:19:17.012Z,69.90
2019-03-22T09:21:46.705Z,69.63
2019-03-22T09:24:18.949Z,69.71
2019-03-22T09:26:48.178Z,70.14
2019-03-22T09:29:18.258Z,69.36
2019-03-22T09:31:48.307Z,68.65
2019-03-22T09:34:18.132Z,69.62
2019-03-22T09:36:47.801Z,69.61
2019-03-22T09:39:17.471Z,69.84
2019-03-22T09:41:47.167Z,70.16
2019-03-22T09:44:16.920Z,68.98
2019-03-22T09:46:46.717Z,68.54
2019-03-22T09:49:16.509Z,67.17
2019-03-22T09:51:46.231Z,67.97
2019-03-22T09:54:17.244Z,70.93
2019-03-22T09:56:47.633Z,70.54
2019-03-22T09:59:17.625Z,68.64
2019-03-22T10:01:47.403Z,66.92
2019-03-22T10:04:17.090Z,67.45
2019-03-22T10:06:47.530Z,69.52
2019-03-22T10:09:17.481Z,69.48
2019-03-22T10:11:47.272Z,68.53
2019-03-22T10:14:17.136Z,67.99
2019-03-22T10:16:47.944Z,68.19
2019-03-22T10:19:17.633Z,67.58
2019-03-22T10:21:47.550Z,66.22
2019-03-22T10:24:17.344Z,66.95
2019-03-22T10:26:46.996Z,67.03
2019-03-22T10:29:16.787Z,67.13
2019-03-22T10:31:46.499Z,67.50
2019-03-22T10:34:16.295Z,67.70
2019-03-22T10:36:46.263Z,67.30
2019-03-22T10:39:16.538Z,65.79
2019-03-22T10:41:46.186Z,66.13
2019-03-22T10:44:15.847Z,65.08
2019-03-22T10:46:45.584Z,63.77
2019-03-22T10:49:15.404Z,63.47
2019-03-22T10:51:55.993Z,62.87
2019-03-22T10:54:16.604Z,60.19
2019-03-22T10:56:46.480Z,59.00
2019-03-22T10:59:16.306Z,53.97
2019-03-22T11:01:57.431Z,51.55
2019-03-22T11:04:17.643Z,51.24
2019-03-22T11:06:47.353Z,47.78
2019-03-22T11:09:17.623Z,46.09
2019-03-22T11:11:47.417Z,45.16
2019-03-22T11:14:17.107Z,48.04
2019-03-22T11:16:47.005Z,48.29
2019-03-22T11:19:17.114Z,46.98
2019-03-22T11:21:46.839Z,45.92
2019-03-22T11:24:16.541Z,47.08
2019-03-22T11:26:46.294Z,48.92
2019-03-22T11:29:16.011Z,50.19
2019-03-22T11:31:45.930Z,47.27
2019-03-22T11:34:15.561Z,46.36
2019-03-22T11:36:45.326Z,49.70
2019-03-22T11:39:16.115Z,49.32
2019-03-22T11:41:46.001Z,52.09
2019-03-22T11:44:15.640Z,52.89
2019-03-22T11:46:45.600Z,51.89
2019-03-22T11:49:15.288Z,52.71
2019-03-22T11:51:45.452Z,51.51
2019-03-22T11:54:15.147Z,48.55
2019-03-22T11:56:44.953Z,43.64
2019-03-22T11:59:14.590Z,40.67
2019-03-22T12:01:44.425Z,38.94
2019-03-22T12:04:14.116Z,38.93
2019-03-22T12:06:43.716Z,40.36
2019-03-22T12:09:13.610Z,36.39
2019-03-22T12:11:43.515Z,31.16
2019-03-22T12:14:13.801Z,34.08
2019-03-22T12:16:43.575Z,34.95
2019-03-22T12:19:13.259Z,34.38
2019-03-22T12:21:43.072Z,34.49
2019-03-22T12:24:13.029Z,31.21
2019-03-22T12:26:42.663Z,31.31
2019-03-22T12:29:12.314Z,30.75
2019-03-22T12:31:46.939Z,31.66
2019-03-22T12:34:16.539Z,31.22
2019-03-22T12:36:47.654Z,30.26
2019-03-22T12:39:17.351Z,28.67
2019-03-22T12:41:47.038Z,30.24
2019-03-22T12:44:19.461Z,30.64
2019-03-22T12:46:49.590Z,30.37
2019-03-22T12:49:19.150Z,30.32
2019-03-22T12:51:48.963Z,30.00
2019-03-22T12:54:20.264Z,28.73
2019-03-22T12:56:49.788Z,29.05
2019-03-22T12:59:19.419Z,29.15
2019-03-22T13:01:49.163Z,29.18
2019-03-22T13:04:19.046Z,28.32
2019-03-22T13:06:48.673Z,29.31
2019-03-22T13:09:20.277Z,27.42
2019-03-22T13:11:50.461Z,26.70
2019-03-22T13:14:20.196Z,26.62
2019-03-22T13:16:50.098Z,28.37
2019-03-22T13:19:20.139Z,29.07
2019-03-22T13:21:49.897Z,27.74
2019-03-22T13:24:20.143Z,28.53
2019-03-22T13:26:49.924Z,31.39
2019-03-22T13:29:21.063Z,31.25
2019-03-22T13:31:53.549Z,30.95
2019-03-22T13:34:23.307Z,32.21
2019-03-22T13:36:53.156Z,32.79
2019-03-22T13:39:22.883Z,31.19
2019-03-22T13:41:52.581Z,30.22
2019-03-22T13:44:22.264Z,33.32
2019-03-22T13:46:52.124Z,32.61
2019-03-22T13:49:21.901Z,33.24
2019-03-22T13:51:51.743Z,32.26
2019-03-22T13:54:22.066Z,32.89
2019-03-22T13:56:51.931Z,31.05
2019-03-22T13:59:23.631Z,30.96
2019-03-22T14:01:54.037Z,30.28
2019-03-22T14:04:23.722Z,32.11
2019-03-22T14:06:53.658Z,31.70
2019-03-22T14:09:23.947Z,32.19
2019-03-22T14:11:53.758Z,31.85
2019-03-22T14:14:24.298Z,31.67
2019-03-22T14:16:54.190Z,33.06
2019-03-22T14:19:24.014Z,33.73
2019-03-22T14:21:53.920Z,34.29
2019-03-22T14:24:23.877Z,32.50
2019-03-22T14:26:53.760Z,32.33
2019-03-22T14:29:23.529Z,33.17
2019-03-22T14:31:53.506Z,36.84
2019-03-22T14:34:23.234Z,38.65
2019-03-22T14:36:56.215Z,37.99
2019-03-22T14:39:26.276Z,36.55
2019-03-22T14:41:56.138Z,35.19
2019-03-22T14:44:28.206Z,34.81
2019-03-22T14:46:59.666Z,35.33
2019-03-22T14:49:29.474Z,34.09
2019-03-22T14:51:59.159Z,33.92
2019-03-22T14:54:29.055Z,34.09
2019-03-22T14:56:59.220Z,36.16
2019-03-22T14:59:32.150Z,36.53
2019-03-22T15:02:02.045Z,36.71
2019-03-22T15:04:31.864Z,37.52
2019-03-22T15:07:01.633Z,38.45
2019-03-22T15:09:31.686Z,38.66
2019-03-22T15:12:01.542Z,38.02
2019-03-22T15:14:48.655Z,38.73
2019-03-22T15:17:36.202Z,37.92
2019-03-22T15:20:25.668Z,38.04
2019-03-22T15:23:13.543Z,37.85
2019-03-22T15:25:45.187Z,39.85
2019-03-22T15:28:22.451Z,40.03
2019-03-22T15:30:52.006Z,40.28
2019-03-22T15:33:39.387Z,41.23
2019-03-22T15:36:14.728Z,42.62
2019-03-22T15:39:01.229Z,41.30
2019-03-22T15:41:31.146Z,41.94
2019-03-22T15:44:01.211Z,43.30
2019-03-22T15:46:31.026Z,43.45
2019-03-22T15:49:00.704Z,44.71
2019-03-22T15:51:30.468Z,45.49
2019-03-22T15:54:00.173Z,45.01
2019-03-22T15:56:30.083Z,46.63
2019-03-22T15:58:59.966Z,46.66
2019-03-22T16:01:29.716Z,47.64
2019-03-22T16:03:59.537Z,48.25
2019-03-22T16:06:29.509Z,49.04
2019-03-22T16:08:59.287Z,50.11
2019-03-22T16:11:29.207Z,51.27
2019-03-22T16:14:01.102Z,51.09
2019-03-22T16:16:30.826Z,52.51
2019-03-22T16:19:00.850Z,52.53
2019-03-22T16:21:31.568Z,52.79
2019-03-22T16:24:02.396Z,53.42
2019-03-22T16:26:32.726Z,53.93
2019-03-22T16:29:03.248Z,53.72
2019-03-22T16:31:34.741Z,54.29
2019-03-22T16:34:05.965Z,55.66
2019-03-22T16:36:35.753Z,56.26
2019-03-22T16:39:08.678Z,57.45
2019-03-22T16:41:38.427Z,57.60
2019-03-22T16:44:08.563Z,57.16
2019-03-22T16:46:38.514Z,56.96
2019-03-22T16:49:27.627Z,57.09
2019-03-22T16:51:57.411Z,57.67
2019-03-22T16:54:27.122Z,57.59
2019-03-22T16:56:56.812Z,59.08
2019-03-22T16:59:26.591Z,58.43
2019-03-22T17:01:56.252Z,58.48
2019-03-22T17:04:26.130Z,58.70
2019-03-22T17:06:55.912Z,59.88
2019-03-22T17:09:25.893Z,59.84
2019-03-22T17:11:55.995Z,60.20
2019-03-22T17:14:25.984Z,60.70
2019-03-22T17:16:56.326Z,61.63
2019-03-22T17:19:26.116Z,60.96
2019-03-22T17:21:55.980Z,61.04
2019-03-22T17:24:26.029Z,61.28
2019-03-22T17:26:55.955Z,61.30
2019-03-22T17:29:27.198Z,62.24
2019-03-22T17:31:56.934Z,62.64
2019-03-22T17:34:27.075Z,62.89
2019-03-22T17:36:56.849Z,63.24
2019-03-22T17:39:26.603Z,64.31
2019-03-22T17:41:57.150Z,64.80
2019-03-22T17:44:27.034Z,64.46
2019-03-22T17:46:56.858Z,64.78
2019-03-22T17:49:26.657Z,65.06
2019-03-22T17:51:56.352Z,65.29
2019-03-22T17:54:26.138Z,65.26
2019-03-22T17:56:56.086Z,65.67
2019-03-22T17:59:26.079Z,65.36
2019-03-22T18:01:57.114Z,65.78
2019-03-22T18:04:26.956Z,65.73
2019-03-22T18:06:56.697Z,66.39
2019-03-22T18:09:26.372Z,66.10
2019-03-22T18:11:56.023Z,66.73
2019-03-22T18:14:26.998Z,67.45
2019-03-22T18:16:57.477Z,67.46
2019-03-22T18:19:27.292Z,67.34
2019-03-22T18:21:56.981Z,67.83
2019-03-22T18:24:26.669Z,68.44
2019-03-22T18:26:56.358Z,68.53
2019-03-22T18:29:26.981Z,68.94
2019-03-22T18:31:57.014Z,69.09
2019-03-22T18:34:33.939Z,69.33
2019-03-22T18:36:58.317Z,68.73
2019-03-22T18:39:27.974Z,68.83
2019-03-22T18:41:57.832Z,69.06
2019-03-22T18:44:27.467Z,69.17
2019-03-22T18:46:57.158Z,69.66
2019-03-22T18:49:32.894Z,69.78
2019-03-22T18:52:02.944Z,69.52
2019-03-22T18:54:32.526Z,70.69
2019-03-22T18:57:02.447Z,70.88
2019-03-22T18:59:32.276Z,70.43
2019-03-22T19:02:02.051Z,70.16
2019-03-22T19:04:31.977Z,70.05
2019-03-22T19:07:01.845Z,70.23
2019-03-22T19:09:32.613Z,69.83
2019-03-22T19:12:02.993Z,69.69
2019-03-22T19:14:33.668Z,69.83
2019-03-22T19:17:03.488Z,70.47
2019-03-22T19:19:33.493Z,70.25
2019-03-22T19:22:03.397Z,70.36
2019-03-22T19:24:33.315Z,71.50
2019-03-22T19:27:22.460Z,71.95
2019-03-22T19:29:53.782Z,72.27
2019-03-22T19:32:23.611Z,73.37
2019-03-22T19:34:54.539Z,74.12
2019-03-22T19:37:24.634Z,74.39
2019-03-22T19:39:54.251Z,74.54
2019-03-22T19:42:24.003Z,74.74
2019-03-22T19:44:53.720Z,74.36
2019-03-22T19:47:23.602Z,74.37
2019-03-22T19:49:53.253Z,74.49
2019-03-22T19:52:22.928Z,74.94
2019-03-22T19:54:52.650Z,75.48
2019-03-22T19:57:22.422Z,75.23
2019-03-22T19:59:52.250Z,75.91
2019-03-22T20:02:21.930Z,76.30
2019-03-22T20:04:53.079Z,76.16
2019-03-22T20:07:26.847Z,76.29
2019-03-22T20:09:54.294Z,76.33
2019-03-22T20:12:24.670Z,75.46
2019-03-22T20:15:01.640Z,76.12
2019-03-22T20:17:31.349Z,76.68
2019-03-22T20:20:01.263Z,76.73
2019-03-22T20:22:33.809Z,78.00
2019-03-22T20:25:04.915Z,77.82
2019-03-22T20:27:34.446Z,77.61
2019-03-22T20:30:08.676Z,77.58
2019-03-22T20:32:38.700Z,78.04
2019-03-22T20:35:16.191Z,76.88
2019-03-22T20:37:42.215Z,78.00
2019-03-22T20:40:16.121Z,78.38
2019-03-22T20:42:45.859Z,79.37
2019-03-22T20:45:23.683Z,79.90
2019-03-22T20:47:48.744Z,79.77
2019-03-22T20:50:18.798Z,79.41
2019-03-22T20:52:48.412Z,78.50
2019-03-22T20:55:18.208Z,79.02
2019-03-22T20:57:48.234Z,78.93
2019-03-22T21:00:19.078Z,78.79
2019-03-22T21:02:48.929Z,78.73
2019-03-22T21:05:26.490Z,78.31
2019-03-22T21:07:50.047Z,78.49
2019-03-22T21:10:20.404Z,78.86
2019-03-22T21:12:50.020Z,78.12
2019-03-22T21:15:24.224Z,77.94
2019-03-22T21:17:51.189Z,78.32
2019-03-22T21:20:20.751Z,77.28
2019-03-22T21:22:50.408Z,77.01
2019-03-22T21:25:20.143Z,77.82
2019-03-22T21:27:49.762Z,78.61
2019-03-22T21:30:19.523Z,78.18
2019-03-22T21:32:49.853Z,78.80
2019-03-22T21:35:22.812Z,78.96
2019-03-22T21:37:50.900Z,78.73
2019-03-22T21:40:20.561Z,79.33
2019-03-22T21:42:50.248Z,79.58
2019-03-22T21:45:19.942Z,79.33
2019-03-22T21:47:49.591Z,79.56
2019-03-22T21:50:19.198Z,79.63
2019-03-22T21:52:48.879Z,79.51
2019-03-22T21:55:18.555Z,79.00
2019-03-22T21:57:48.227Z,79.28
2019-03-22T22:00:18.118Z,79.11
2019-03-22T22:02:47.924Z,79.10
2019-03-22T22:05:17.739Z,79.62
2019-03-22T22:07:47.248Z,79.83
2019-03-22T22:10:19.046Z,78.97
2019-03-22T22:12:48.919Z,80.30
2019-03-22T22:15:18.822Z,80.08
2019-03-22T22:17:48.944Z,80.39
2019-03-22T22:20:28.550Z,81.48
2019-03-22T22:22:49.966Z,80.44
2019-03-22T22:25:19.621Z,80.76
2019-03-22T22:27:49.539Z,80.67
2019-03-22T22:30:19.449Z,80.82
2019-03-22T22:32:49.005Z,81.00
2019-03-22T22:35:18.601Z,81.97
2019-03-22T22:37:48.257Z,82.33
2019-03-22T22:40:18.032Z,82.00
2019-03-22T22:42:49.050Z,81.61
2019-03-22T22:45:18.644Z,81.99
2019-03-22T22:47:48.425Z,82.15
2019-03-22T22:50:18.202Z,82.01
2019-03-22T22:52:47.881Z,82.46
2019-03-22T22:55:17.529Z,83.27
2019-03-22T22:57:47.118Z,83.49
2019-03-22T23:00:18.371Z,83.04
2019-03-22T23:02:48.486Z,82.70
2019-03-22T23:05:18.256Z,83.93
2019-03-22T23:07:47.804Z,83.58
2019-03-22T23:10:17.506Z,84.50
2019-03-22T23:12:47.148Z,84.83
2019-03-22T23:15:16.769Z,84.18
2019-03-22T23:17:47.297Z,84.06
2019-03-22T23:20:16.908Z,84.34
2019-03-22T23:22:46.435Z,85.07
2019-03-22T23:25:17.813Z,85.34
2019-03-22T23:27:47.354Z,85.10
2019-03-22T23:30:17.209Z,84.75
2019-03-22T23:32:46.952Z,84.65
2019-03-22T23:35:18.196Z,85.55
2019-03-22T23:37:47.774Z,86.59
2019-03-22T23:40:17.342Z,85.92
2019-03-22T23:42:46.906Z,86.08
2019-03-22T23:45:16.605Z,87.00
2019-03-22T23:47:46.516Z,87.10
2019-03-22T23:50:16.143Z,86.52
2019-03-22T23:52:45.827Z,86.53
2019-03-22T23:55:15.560Z,86.77
2019-03-22T23:57:45.171Z,86.92
